createdAt,value
2023-01-01T00:00:49.440Z,79.74
2023-01-01T00:03:17.465Z,82.24
2023-01-01T00:05:44.877Z,84.58
2023-01-01T00:08:12.286Z,81.34
2023-01-01T00:10:40.081Z,77.29
2023-01-01T00:13:07.493Z,78.40
2023-01-01T00:15:35.247Z,73.71
2023-01-01T00:18:02.934Z,71.08
2023-01-01T00:20:35.147Z,69.46
2023-01-01T00:23:03.629Z,66.87
2023-01-01T00:25:32.596Z,65.09
2023-01-01T00:28:00.554Z,67.17
2023-01-01T00:30:28.276Z,69.60
2023-01-01T00:32:56.546Z,69.29
2023-01-01T00:35:25.465Z,68.02
2023-01-01T00:37:53.976Z,70.69
2023-01-01T00:40:21.632Z,71.23
2023-01-01T00:42:48.998Z,73.72
2023-01-01T00:45:21.440Z,67.97
2023-01-01T00:47:53.486Z,65.00
2023-01-01T00:50:22.155Z,68.56
2023-01-01T00:52:50.009Z,69.52
2023-01-01T00:55:17.555Z,69.87
2023-01-01T00:57:45.255Z,72.14
2023-01-01T01:00:13.550Z,73.69
2023-01-01T01:02:41.260Z,72.96
2023-01-01T01:05:09.758Z,75.37
2023-01-01T01:07:37.965Z,75.40
2023-01-01T01:10:06.173Z,75.16
2023-01-01T01:12:34.710Z,74.65
2023-01-01T01:15:02.932Z,71.97
2023-01-01T01:17:31.063Z,71.70
2023-01-01T01:19:59.053Z,71.85
2023-01-01T01:22:29.055Z,70.57
2023-01-01T01:24:57.411Z,66.28
2023-01-01T01:27:25.479Z,63.21
2023-01-01T01:29:53.596Z,62.20
2023-01-01T01:32:20.952Z,63.83
2023-01-01T01:34:48.763Z,67.24
2023-01-01T01:37:16.386Z,64.05
2023-01-01T01:39:43.808Z,70.20
2023-01-01T01:42:17.353Z,76.55
2023-01-01T01:44:48.213Z,78.54
2023-01-01T01:47:32.094Z,77.64
2023-01-01T01:50:13.380Z,85.22
2023-01-01T01:52:54.075Z,89.01
2023-01-01T01:55:21.648Z,90.58
2023-01-01T01:57:49.357Z,91.10
2023-01-01T02:00:17.483Z,86.06
2023-01-01T02:03:01.326Z,82.01
2023-01-01T02:05:29.353Z,75.18
2023-01-01T02:07:58.823Z,71.42
2023-01-01T02:10:27.678Z,67.24
2023-01-01T02:12:55.188Z,67.96
2023-01-01T02:15:25.588Z,71.26
2023-01-01T02:17:59.865Z,71.63
2023-01-01T02:20:36.066Z,70.64
2023-01-01T02:23:25.008Z,65.05
2023-01-01T02:26:15.836Z,64.42
2023-01-01T02:28:53.314Z,66.87
2023-01-01T02:31:28.201Z,66.93
2023-01-01T02:33:59.464Z,69.30
2023-01-01T02:36:28.466Z,66.78
2023-01-01T02:38:57.299Z,67.17
2023-01-01T02:41:28.728Z,67.45
2023-01-01T02:48:53.174Z,68.21
2023-01-01T02:51:46.411Z,73.67
2023-01-01T02:54:19.904Z,78.18
2023-01-01T02:56:56.692Z,76.22
2023-01-01T03:00:04.021Z,74.26
2023-01-01T03:02:52.319Z,82.83
2023-01-01T03:06:03.329Z,81.33
2023-01-01T03:08:42.082Z,78.51
2023-01-01T03:11:12.166Z,71.77
2023-01-01T03:13:49.665Z,75.13
2023-01-01T03:16:51.169Z,74.09
2023-01-01T03:19:24.958Z,81.56
2023-01-01T03:22:10.470Z,79.10
2023-01-01T03:24:45.775Z,71.03
2023-01-01T03:27:20.094Z,65.26
2023-01-01T03:29:49.239Z,65.16
2023-01-01T03:32:21.362Z,60.03
2023-01-01T03:34:54.109Z,61.26
2023-01-01T03:37:26.793Z,66.56
2023-01-01T03:39:57.971Z,64.37
2023-01-01T03:42:43.994Z,61.04
2023-01-01T03:45:17.666Z,66.50
2023-01-01T03:47:45.559Z,62.67
2023-01-01T03:50:14.319Z,62.95
2023-01-01T03:52:53.861Z,62.74
2023-01-01T03:55:38.565Z,63.99
2023-01-01T03:58:21.438Z,63.28
2023-01-01T04:01:05.350Z,62.12
2023-01-01T04:03:34.574Z,60.14
2023-01-01T04:06:03.072Z,62.85
2023-01-01T04:08:33.103Z,63.94
2023-01-01T04:11:26.005Z,67.25
2023-01-01T04:13:53.462Z,68.95
2023-01-01T04:16:21.248Z,62.62
2023-01-01T04:18:48.692Z,66.38
2023-01-01T04:21:16.114Z,61.68
2023-01-01T04:23:43.814Z,57.02
2023-01-01T04:26:14.173Z,55.56
2023-01-01T04:28:42.254Z,54.65
2023-01-01T04:31:10.376Z,56.22
2023-01-01T04:33:37.905Z,57.64
2023-01-01T04:36:07.668Z,61.30
2023-01-01T04:38:36.197Z,61.36
2023-01-01T04:41:04.418Z,61.99
2023-01-01T04:43:32.141Z,60.56
2023-01-01T04:46:02.859Z,59.19
2023-01-01T04:48:31.241Z,57.29
2023-01-01T04:51:00.408Z,57.08
2023-01-01T04:53:33.012Z,56.60
2023-01-01T04:56:20.425Z,55.39
2023-01-01T04:58:48.442Z,54.55
2023-01-01T05:01:25.784Z,55.79
2023-01-01T05:03:53.978Z,55.01
2023-01-01T05:06:21.817Z,56.07
2023-01-01T05:08:50.775Z,56.61
2023-01-01T05:11:20.694Z,56.20
2023-01-01T05:13:50.083Z,57.45
2023-01-01T05:16:19.869Z,57.48
2023-01-01T05:18:47.905Z,56.79
2023-01-01T05:21:18.212Z,56.58
2023-01-01T05:23:46.054Z,55.78
2023-01-01T05:26:18.321Z,55.75
2023-01-01T05:28:47.276Z,57.19
2023-01-01T05:31:16.798Z,55.82
2023-01-01T05:33:44.423Z,55.95
2023-01-01T05:36:23.666Z,56.75
2023-01-01T05:38:51.655Z,56.54
2023-01-01T05:41:20.801Z,55.67
2023-01-01T05:43:48.652Z,55.35
2023-01-01T05:46:19.148Z,55.18
2023-01-01T05:48:48.544Z,57.32
2023-01-01T05:51:20.768Z,59.38
2023-01-01T05:53:48.569Z,57.59
2023-01-01T05:56:16.903Z,55.55
2023-01-01T05:58:45.049Z,55.30
2023-01-01T06:01:15.756Z,52.83
2023-01-01T06:03:44.260Z,48.94
2023-01-01T06:06:14.087Z,51.63
2023-01-01T06:08:41.934Z,52.08
2023-01-01T06:11:11.985Z,51.26
2023-01-01T06:13:39.422Z,50.85
2023-01-01T06:16:07.335Z,51.59
2023-01-01T06:18:35.708Z,54.45
2023-01-01T06:21:08.943Z,53.13
2023-01-01T06:23:37.315Z,49.44
2023-01-01T06:26:10.219Z,50.38
2023-01-01T06:28:38.641Z,51.02
2023-01-01T06:31:07.902Z,51.49
2023-01-01T06:33:35.907Z,48.32
2023-01-01T06:36:06.651Z,47.90
2023-01-01T06:38:35.440Z,51.14
2023-01-01T06:41:04.900Z,52.21
2023-01-01T06:43:34.531Z,52.80
2023-01-01T06:46:18.276Z,52.26
2023-01-01T06:48:47.456Z,52.84
2023-01-01T06:51:28.914Z,64.61
2023-01-01T06:53:59.771Z,61.93
2023-01-01T06:56:27.746Z,61.28
2023-01-01T06:58:55.323Z,61.54
2023-01-01T07:01:25.303Z,59.78
2023-01-01T07:03:54.734Z,57.60
2023-01-01T07:06:22.867Z,56.87
2023-01-01T07:08:50.700Z,55.54
2023-01-01T07:11:18.954Z,54.44
2023-01-01T07:13:46.347Z,54.82
2023-01-01T07:16:14.430Z,53.52
2023-01-01T07:18:42.199Z,54.49
2023-01-01T07:21:34.572Z,55.25
2023-01-01T07:24:04.607Z,53.86
2023-01-01T07:26:33.411Z,55.01
2023-01-01T07:29:08.744Z,55.21
2023-01-01T07:31:38.377Z,56.07
2023-01-01T07:34:09.546Z,56.55
2023-01-01T07:36:37.238Z,54.82
2023-01-01T07:39:04.657Z,55.63
2023-01-01T07:41:32.072Z,57.50
2023-01-01T07:44:00.231Z,57.11
2023-01-01T07:46:27.750Z,55.82
2023-01-01T07:48:55.356Z,56.12
2023-01-01T07:51:23.096Z,55.79
2023-01-01T07:53:51.821Z,56.21
2023-01-01T07:56:19.259Z,55.95
2023-01-01T07:58:46.960Z,53.56
2023-01-01T08:01:14.990Z,54.74
2023-01-01T08:03:43.009Z,55.00
2023-01-01T08:06:12.176Z,55.27
2023-01-01T08:08:40.334Z,55.97
2023-01-01T08:11:08.184Z,55.91
2023-01-01T08:13:35.849Z,55.15
2023-01-01T08:16:03.523Z,54.36
2023-01-01T08:18:31.273Z,54.74
2023-01-01T08:20:58.797Z,54.62
2023-01-01T08:23:26.284Z,55.38
2023-01-01T08:25:53.990Z,53.79
2023-01-01T08:28:21.403Z,53.95
2023-01-01T08:30:48.816Z,52.87
2023-01-01T08:33:16.530Z,53.55
2023-01-01T08:35:46.602Z,52.61
2023-01-01T08:38:18.066Z,53.85
2023-01-01T08:40:45.992Z,55.63
2023-01-01T08:43:13.383Z,55.27
2023-01-01T08:45:41.115Z,57.59
2023-01-01T08:48:08.770Z,56.58
2023-01-01T08:50:36.312Z,55.91
2023-01-01T08:53:04.137Z,56.21
2023-01-01T08:55:31.566Z,55.84
2023-01-01T08:57:58.987Z,59.14
2023-01-01T09:00:26.810Z,59.78
2023-01-01T09:02:54.430Z,60.42
2023-01-01T09:05:21.932Z,59.76
2023-01-01T09:07:49.631Z,59.05
2023-01-01T09:10:17.651Z,59.64
2023-01-01T09:12:45.090Z,58.50
2023-01-01T09:15:16.005Z,59.01
2023-01-01T09:17:43.434Z,57.42
2023-01-01T09:20:10.901Z,57.40
2023-01-01T09:22:38.613Z,58.84
2023-01-01T09:25:06.197Z,60.77
2023-01-01T09:27:33.618Z,60.03
2023-01-01T09:30:01.353Z,60.53
2023-01-01T09:32:30.558Z,60.98
2023-01-01T09:34:57.975Z,62.60
2023-01-01T09:37:25.690Z,60.76
2023-01-01T09:39:53.168Z,63.86
2023-01-01T09:42:32.905Z,64.13
2023-01-01T09:45:25.941Z,65.40
2023-01-01T09:47:59.434Z,63.39
2023-01-01T09:50:41.119Z,65.35
2023-01-01T09:53:27.612Z,66.94
2023-01-01T09:56:03.376Z,63.82
2023-01-01T09:58:35.476Z,64.68
2023-01-01T10:01:34.236Z,64.71
2023-01-01T10:04:13.909Z,63.05
2023-01-01T10:06:50.365Z,64.27
2023-01-01T10:09:29.120Z,65.09
2023-01-01T10:12:01.135Z,63.51
2023-01-01T10:14:33.386Z,62.34
2023-01-01T10:17:04.036Z,61.62
2023-01-01T10:19:36.706Z,61.82
2023-01-01T10:22:08.492Z,60.70
2023-01-01T10:24:41.986Z,61.08
2023-01-01T10:27:19.387Z,62.77
2023-01-01T10:29:49.629Z,64.07
2023-01-01T10:32:22.184Z,64.47
2023-01-01T10:34:51.122Z,64.83
2023-01-01T10:37:18.913Z,62.67
2023-01-01T10:39:47.027Z,61.76
2023-01-01T10:42:15.695Z,63.22
2023-01-01T10:44:43.808Z,64.31
2023-01-01T10:47:28.600Z,64.35
2023-01-01T10:49:57.130Z,64.33
2023-01-01T10:52:27.582Z,62.59
2023-01-01T10:54:55.282Z,60.47
2023-01-01T10:57:40.969Z,63.66
2023-01-01T11:00:22.507Z,62.27
2023-01-01T11:03:19.707Z,62.08
2023-01-01T11:06:09.357Z,62.34
2023-01-01T11:08:39.554Z,63.53
2023-01-01T11:11:07.705Z,64.57
2023-01-01T11:13:35.125Z,62.18
2023-01-01T11:16:02.569Z,64.90
2023-01-01T11:18:35.939Z,61.54
2023-01-01T11:21:05.774Z,62.70
2023-01-01T11:23:37.256Z,61.49
2023-01-01T11:26:13.387Z,63.81
2023-01-01T11:28:41.973Z,62.35
2023-01-01T11:31:16.127Z,61.04
2023-01-01T11:33:53.384Z,59.24
2023-01-01T11:36:22.366Z,58.88
2023-01-01T11:39:27.687Z,58.32
2023-01-01T11:41:56.909Z,57.80
2023-01-01T11:44:40.726Z,57.50
2023-01-01T11:47:22.184Z,56.92
2023-01-01T11:49:55.854Z,58.11
2023-01-01T11:52:38.263Z,58.70
2023-01-01T11:55:17.161Z,56.87
2023-01-01T11:58:19.323Z,55.65
2023-01-01T12:00:54.819Z,55.45
2023-01-01T12:03:34.307Z,55.56
2023-01-01T12:06:26.457Z,54.30
2023-01-01T12:09:09.141Z,55.76
2023-01-01T12:12:00.055Z,56.31
2023-01-01T12:14:45.190Z,57.48
2023-01-01T12:17:12.519Z,54.11
2023-01-01T12:20:00.359Z,56.27
2023-01-01T12:22:28.005Z,56.33
2023-01-01T12:24:56.015Z,55.61
2023-01-01T12:27:36.110Z,56.32
2023-01-01T12:30:24.663Z,56.12
2023-01-01T12:33:11.023Z,52.77
2023-01-01T12:35:54.762Z,52.61
2023-01-01T12:38:44.496Z,52.12
2023-01-01T12:41:18.019Z,52.15
2023-01-01T12:44:04.035Z,52.48
2023-01-01T12:46:50.487Z,51.72
2023-01-01T12:49:21.628Z,51.14
2023-01-01T12:52:16.615Z,51.74
2023-01-01T12:55:19.464Z,51.19
2023-01-01T12:57:50.575Z,51.16
2023-01-01T13:00:20.331Z,51.13
2023-01-01T13:02:51.395Z,51.80
2023-01-01T13:05:25.652Z,50.89
2023-01-01T13:07:58.395Z,50.96
2023-01-01T13:10:34.411Z,51.28
2023-01-01T13:13:02.961Z,50.28
2023-01-01T13:15:43.310Z,50.52
2023-01-01T13:18:13.803Z,49.05
2023-01-01T13:20:43.943Z,50.49
2023-01-01T13:23:38.208Z,51.19
2023-01-01T13:26:28.396Z,51.10
2023-01-01T13:28:57.444Z,52.27
2023-01-01T13:31:40.417Z,51.93
2023-01-01T13:34:30.126Z,52.66
2023-01-01T13:37:17.401Z,51.73
2023-01-01T13:40:05.545Z,51.09
2023-01-01T13:42:44.957Z,51.59
2023-01-01T13:46:01.161Z,53.58
2023-01-01T13:48:36.992Z,54.49
2023-01-01T13:51:54.916Z,56.26
2023-01-01T13:54:26.580Z,53.71
2023-01-01T13:57:03.410Z,55.14
2023-01-01T13:59:46.568Z,53.46
2023-01-01T14:02:29.419Z,54.33
2023-01-01T14:05:35.148Z,53.75
2023-01-01T14:08:06.090Z,54.99
2023-01-01T14:10:37.082Z,53.22
2023-01-01T14:13:08.495Z,53.56
2023-01-01T14:15:38.516Z,54.14
2023-01-01T14:18:11.553Z,53.72
2023-01-01T14:20:50.541Z,52.85
2023-01-01T14:23:27.506Z,52.71
2023-01-01T14:25:55.300Z,52.49
2023-01-01T14:28:26.348Z,52.58
2023-01-01T14:30:55.153Z,53.47
2023-01-01T14:33:26.916Z,53.36
2023-01-01T14:35:55.929Z,53.37
2023-01-01T14:38:27.120Z,56.21
2023-01-01T14:41:12.977Z,55.46
2023-01-01T14:43:42.755Z,57.27
2023-01-01T14:46:19.694Z,55.51
2023-01-01T14:48:50.413Z,55.68
2023-01-01T14:51:30.598Z,57.76
2023-01-01T14:54:00.453Z,56.07
2023-01-01T14:56:32.975Z,57.27
2023-01-01T14:59:10.146Z,55.73
2023-01-01T15:01:39.723Z,56.57
2023-01-01T15:04:26.258Z,57.00
2023-01-01T15:06:58.773Z,56.01
2023-01-01T15:09:27.793Z,57.21
2023-01-01T15:11:56.734Z,56.71
2023-01-01T15:14:35.736Z,56.98
2023-01-01T15:17:11.401Z,57.49
2023-01-01T15:19:43.646Z,57.14
2023-01-01T15:22:12.561Z,56.74
2023-01-01T15:24:40.213Z,56.77
2023-01-01T15:27:20.144Z,56.12
2023-01-01T15:29:47.978Z,55.90
2023-01-01T15:32:15.588Z,55.20
2023-01-01T15:34:42.896Z,54.79
2023-01-01T15:37:15.923Z,54.21
2023-01-01T15:40:24.488Z,53.16
2023-01-01T15:42:54.915Z,53.78
2023-01-01T15:45:35.323Z,54.13
2023-01-01T15:48:06.645Z,54.30
2023-01-01T15:50:43.236Z,52.48
2023-01-01T15:53:40.162Z,53.62
2023-01-01T15:56:12.995Z,54.37
2023-01-01T15:58:48.413Z,54.30
2023-01-01T16:01:21.084Z,54.41
2023-01-01T16:03:50.647Z,54.26
2023-01-01T16:06:20.073Z,57.06
2023-01-01T16:08:47.505Z,60.26
2023-01-01T16:11:15.438Z,56.92
2023-01-01T16:13:43.075Z,55.78
2023-01-01T16:16:37.061Z,56.29
2023-01-01T16:19:07.000Z,55.14
2023-01-01T16:21:34.390Z,55.72
2023-01-01T16:24:01.966Z,56.14
2023-01-01T16:26:29.748Z,56.53
2023-01-01T16:28:57.116Z,56.71
2023-01-01T16:31:28.730Z,57.95
2023-01-01T16:33:57.993Z,56.60
2023-01-01T16:36:29.395Z,55.96
2023-01-01T16:38:58.119Z,55.88
2023-01-01T16:41:27.212Z,56.47
2023-01-01T16:43:56.152Z,55.29
2023-01-01T16:46:24.123Z,55.60
2023-01-01T16:48:51.666Z,55.45
2023-01-01T16:51:28.314Z,54.63
2023-01-01T16:53:57.395Z,54.62
2023-01-01T16:56:24.975Z,54.60
2023-01-01T16:59:00.274Z,54.17
2023-01-01T17:01:31.456Z,53.24
2023-01-01T17:04:00.709Z,53.78
2023-01-01T17:06:28.352Z,54.73
2023-01-01T17:08:56.476Z,54.79
2023-01-01T17:11:25.214Z,54.13
2023-01-01T17:13:53.192Z,54.83
2023-01-01T17:16:27.305Z,54.81
2023-01-01T17:19:15.537Z,54.51
2023-01-01T17:21:45.881Z,53.35
2023-01-01T17:24:14.493Z,54.09
2023-01-01T17:26:42.073Z,54.89
2023-01-01T17:29:10.447Z,54.88
2023-01-01T17:31:38.869Z,53.42
2023-01-01T17:34:08.931Z,54.45
2023-01-01T17:36:39.729Z,54.05
2023-01-01T17:39:07.567Z,55.36
2023-01-01T17:41:36.049Z,54.82
2023-01-01T17:44:04.612Z,56.28
2023-01-01T17:46:33.172Z,56.12
2023-01-01T17:49:01.252Z,56.49
2023-01-01T17:51:29.024Z,50.83
2023-01-01T17:53:56.762Z,53.95
2023-01-01T17:56:24.954Z,53.69
2023-01-01T17:58:53.938Z,55.11
2023-01-01T18:01:21.903Z,55.47
2023-01-01T18:03:51.932Z,56.57
2023-01-01T18:06:19.677Z,56.44
2023-01-01T18:08:47.771Z,56.81
2023-01-01T18:11:15.699Z,57.53
2023-01-01T18:13:43.459Z,56.38
2023-01-01T18:16:11.445Z,56.79
2023-01-01T18:18:40.917Z,57.19
2023-01-01T18:21:12.588Z,57.00
2023-01-01T18:23:41.481Z,56.37
2023-01-01T18:26:10.937Z,57.04
2023-01-01T18:28:39.190Z,56.22
2023-01-01T18:31:16.151Z,55.71
2023-01-01T18:33:44.139Z,55.54
2023-01-01T18:36:14.163Z,54.52
2023-01-01T18:38:46.560Z,55.15
2023-01-01T18:41:42.194Z,55.65
2023-01-01T18:44:24.318Z,56.07
2023-01-01T18:46:58.630Z,56.52
2023-01-01T18:49:26.823Z,57.97
2023-01-01T18:51:57.831Z,57.55
2023-01-01T18:54:26.332Z,56.64
2023-01-01T18:57:33.046Z,55.56
2023-01-01T19:00:26.144Z,56.43
2023-01-01T19:03:02.952Z,55.03
2023-01-01T19:05:33.400Z,54.99
2023-01-01T19:08:07.216Z,55.83
2023-01-01T19:10:57.997Z,55.91
2023-01-01T19:13:31.414Z,55.41
2023-01-01T19:16:42.163Z,54.99
2023-01-01T19:19:25.059Z,54.73
2023-01-01T19:22:02.086Z,55.05
2023-01-01T19:24:31.936Z,55.54
2023-01-01T19:27:12.309Z,56.06
2023-01-01T19:29:46.059Z,55.72
2023-01-01T19:32:14.399Z,55.48
2023-01-01T19:34:43.036Z,55.69
2023-01-01T19:37:11.393Z,54.43
2023-01-01T19:39:40.605Z,55.18
2023-01-01T19:42:08.698Z,54.25
2023-01-01T19:44:37.977Z,54.34
2023-01-01T19:47:06.400Z,54.85
2023-01-01T19:49:34.846Z,55.36
2023-01-01T19:52:03.791Z,55.11
2023-01-01T19:54:31.878Z,55.60
2023-01-01T19:57:01.509Z,55.98
2023-01-01T19:59:33.207Z,55.42
2023-01-01T20:02:43.155Z,56.44
2023-01-01T20:04:51.887Z,56.30
2023-01-01T20:07:21.898Z,56.01
2023-01-01T20:09:49.945Z,55.22
2023-01-01T20:12:23.062Z,55.48
2023-01-01T20:14:53.696Z,56.46
2023-01-01T20:17:22.989Z,57.02
2023-01-01T20:19:54.598Z,57.77
2023-01-01T20:22:24.254Z,57.65
2023-01-01T20:24:53.830Z,58.74
2023-01-01T20:27:28.070Z,57.63
2023-01-01T20:29:59.554Z,56.70
2023-01-01T20:32:29.530Z,57.27
2023-01-01T20:34:58.411Z,56.47
2023-01-01T20:37:39.889Z,55.34
2023-01-01T20:40:10.629Z,55.61
2023-01-01T20:42:45.048Z,55.59
2023-01-01T20:45:13.237Z,56.75
2023-01-01T20:47:42.046Z,55.67
2023-01-01T20:50:11.151Z,56.41
2023-01-01T20:52:40.702Z,57.70
2023-01-01T20:55:09.696Z,56.37
2023-01-01T20:57:38.623Z,56.78
2023-01-01T21:00:10.906Z,55.85
2023-01-01T21:02:41.634Z,58.11
2023-01-01T21:05:10.246Z,57.17
2023-01-01T21:07:38.913Z,56.37
2023-01-01T21:10:08.577Z,56.72
2023-01-01T21:12:37.909Z,57.68
2023-01-01T21:15:14.423Z,57.37
2023-01-01T21:17:44.148Z,55.97
2023-01-01T21:20:14.332Z,56.07
2023-01-01T21:22:43.101Z,57.03
2023-01-01T21:25:50.633Z,56.07
2023-01-01T21:28:15.860Z,56.04
2023-01-01T21:30:56.879Z,55.07
2023-01-01T21:33:31.334Z,54.72
2023-01-01T21:36:02.415Z,56.19
2023-01-01T21:38:31.793Z,56.33
2023-01-01T21:41:00.505Z,54.97
2023-01-01T21:43:29.804Z,55.75
2023-01-01T21:46:12.177Z,55.77
2023-01-01T21:48:45.548Z,55.10
2023-01-01T21:51:27.403Z,56.95
2023-01-01T21:54:11.404Z,55.29
2023-01-01T21:56:40.758Z,55.25
2023-01-01T21:59:33.527Z,55.53
2023-01-01T22:02:07.087Z,54.53
2023-01-01T22:04:45.846Z,55.81
2023-01-01T22:10:28.780Z,55.42
2023-01-01T22:12:58.480Z,55.40
2023-01-01T22:15:30.669Z,56.41
2023-01-01T22:18:24.789Z,56.71
2023-01-01T22:20:53.009Z,57.00
2023-01-01T22:23:26.731Z,55.06
2023-01-01T22:25:55.384Z,55.23
2023-01-01T22:28:27.838Z,55.26
2023-01-01T22:30:59.125Z,55.80
2023-01-01T22:33:40.484Z,54.61
2023-01-01T22:36:28.657Z,55.06
2023-01-01T22:39:01.686Z,56.20
2023-01-01T22:41:29.392Z,56.24
2023-01-01T22:44:03.336Z,56.26
2023-01-01T22:46:36.682Z,55.84
2023-01-01T22:49:19.982Z,56.46
2023-01-01T22:51:49.413Z,57.39
2023-01-01T22:54:16.804Z,57.29
2023-01-01T22:56:44.204Z,55.88
2023-01-01T22:59:11.936Z,54.40
2023-01-01T23:01:39.429Z,57.20
2023-01-01T23:04:07.012Z,58.39
2023-01-01T23:06:34.799Z,57.93
2023-01-01T23:09:02.300Z,57.68
2023-01-01T23:11:29.948Z,57.23
2023-01-01T23:14:16.258Z,58.35
2023-01-01T23:16:43.646Z,57.50
2023-01-01T23:19:11.597Z,56.60
2023-01-01T23:21:40.969Z,56.16
2023-01-01T23:24:11.604Z,56.79
2023-01-01T23:26:40.436Z,56.05
2023-01-01T23:29:08.850Z,57.51
2023-01-01T23:31:37.041Z,59.31
2023-01-01T23:34:05.029Z,58.58
2023-01-01T23:36:32.585Z,57.00
2023-01-01T23:39:00.052Z,56.53
2023-01-01T23:41:27.715Z,56.70
2023-01-01T23:43:55.153Z,57.77
2023-01-01T23:46:22.692Z,57.17
2023-01-01T23:48:50.744Z,57.97
2023-01-01T23:51:18.840Z,56.39
2023-01-01T23:53:46.294Z,56.90
2023-01-01T23:56:14.072Z,56.19
2023-01-01T23:58:41.501Z,55.53
